Time;durP1;ratioP1;P1;durP2;ratioP2;P2;SDS_P1;SDS_P2;PMS_P1;PMS_P2;Temp;Humidity;BMP_temperature;BMP_pressure;BME280_temperature;BME280_humidity;BME280_pressure;Samples;Min_cycle;Max_cycle;Signal;HPM_P1;HPM_P2
2024/02/09 00:02:28;;;;;;;2.00;1.48;;;;;;;;;;6335893;28;20107;-81
2024/02/09 00:05:28;;;;;;;2.73;1.50;;;;;;;;;;6333380;28;20031;-81
2024/02/09 00:08:30;;;;;;;1.80;1.13;;;;;;;;;;6335126;28;20028;-81
2024/02/09 00:11:33;;;;;;;2.00;1.15;;;;;;;;;;6343387;28;20069;-81
2024/02/09 00:14:33;;;;;;;1.58;1.15;;;;;;;;;;6338266;28;20381;-81
2024/02/09 00:17:35;;;;;;;1.53;1.30;;;;;;;;;;6343741;28;20066;-81
2024/02/09 00:20:35;;;;;;;3.55;1.40;;;;;;;;;;6343897;28;20023;-81
2024/02/09 00:23:35;;;;;;;1.40;1.13;;;;;;;;;;6334826;28;20024;-81
2024/02/09 00:26:35;;;;;;;2.10;1.20;;;;;;;;;;6321418;28;20016;-82
2024/02/09 00:29:36;;;;;;;1.63;1.10;;;;;;;;;;6319961;28;20081;-81
2024/02/09 00:32:36;;;;;;;1.67;1.08;;;;;;;;;;6303671;28;20062;-81
2024/02/09 00:35:40;;;;;;;1.93;1.33;;;;;;;;;;6330000;28;20024;-81
2024/02/09 00:38:41;;;;;;;2.28;1.30;;;;;;;;;;6346989;28;20479;-81
2024/02/09 00:41:41;;;;;;;2.72;1.23;;;;;;;;;;6352209;28;20027;-81
2024/02/09 00:44:44;;;;;;;1.70;1.20;;;;;;;;;;6348877;28;20361;-81
2024/02/09 00:47:47;;;;;;;1.52;1.00;;;;;;;;;;6333871;28;20437;-81
2024/02/09 00:50:47;;;;;;;1.52;1.25;;;;;;;;;;6351866;28;20035;-81
2024/02/09 00:53:48;;;;;;;2.20;1.30;;;;;;;;;;6351690;28;20353;-81
2024/02/09 00:56:48;;;;;;;2.45;1.40;;;;;;;;;;6351242;28;20408;-82
2024/02/09 00:59:50;;;;;;;1.87;1.10;;;;;;;;;;6349085;28;20024;-81
2024/02/09 01:02:51;;;;;;;1.52;1.33;;;;;;;;;;6351133;28;20472;-81
2024/02/09 01:05:51;;;;;;;3.42;1.42;;;;;;;;;;6351901;28;20026;-81
2024/02/09 01:08:51;;;;;;;3.00;1.93;;;;;;;;;;6345650;28;20024;-81
2024/02/09 01:11:52;;;;;;;2.10;1.43;;;;;;;;;;6349027;28;20020;-81
2024/02/09 02:47:18;;;;;;;2.40;1.63;;;;;;;;;;6347879;28;20028;-82
2024/02/09 03:06:52;;;;;;;2.10;1.48;;;;;;;;;;6347009;28;20028;-81
2024/02/09 03:09:53;;;;;;;2.47;1.53;;;;;;;;;;6346367;28;20092;-81
2024/02/09 03:12:54;;;;;;;1.57;1.43;;;;;;;;;;6346121;28;20051;-82
2024/02/09 03:15:54;;;;;;;2.13;1.52;;;;;;;;;;6348031;28;20452;-81
2024/02/09 03:18:54;;;;;;;2.13;1.33;;;;;;;;;;6347587;28;20464;-81
2024/02/09 03:21:56;;;;;;;1.47;1.07;;;;;;;;;;6348215;28;20027;-81
2024/02/09 03:25:01;;;;;;;2.17;1.20;;;;;;;;;;6330171;28;20024;-81
2024/02/09 03:28:02;;;;;;;3.33;1.20;;;;;;;;;;6316200;28;20434;-81
2024/02/09 03:31:02;;;;;;;2.33;1.03;;;;;;;;;;6330491;28;20035;-81
2024/02/09 03:34:02;;;;;;;1.27;1.17;;;;;;;;;;6347394;28;20452;-81
2024/02/09 03:37:02;;;;;;;1.43;1.10;;;;;;;;;;6344513;28;20088;-81
2024/02/09 03:40:03;;;;;;;1.70;1.40;;;;;;;;;;6329528;28;20046;-81
2024/02/09 03:43:03;;;;;;;2.60;1.10;;;;;;;;;;6344753;28;20016;-81
2024/02/09 03:46:03;;;;;;;1.17;0.97;;;;;;;;;;6344761;28;20050;-81
2024/02/09 03:49:04;;;;;;;2.40;0.90;;;;;;;;;;6346325;28;20027;-82
2024/02/09 03:52:05;;;;;;;1.52;1.10;;;;;;;;;;6347483;28;20479;-81
2024/02/09 03:55:07;;;;;;;3.08;1.30;;;;;;;;;;6346792;28;20042;-81
2024/02/09 03:58:07;;;;;;;0.98;0.88;;;;;;;;;;6344577;28;20107;-81
2024/02/09 04:01:10;;;;;;;2.30;1.37;;;;;;;;;;6346051;28;20028;-81
2024/02/09 04:04:10;;;;;;;2.33;1.20;;;;;;;;;;6340080;28;20273;-81
2024/02/09 04:07:11;;;;;;;2.03;1.20;;;;;;;;;;6318073;28;20024;-82
2024/02/09 04:10:11;;;;;;;1.97;1.33;;;;;;;;;;6337722;28;20490;-81
2024/02/09 04:13:12;;;;;;;2.95;1.25;;;;;;;;;;6331898;28;20650;-81
2024/02/09 04:16:12;;;;;;;2.00;1.30;;;;;;;;;;6295954;28;20037;-81
2024/02/09 04:19:14;;;;;;;2.87;1.30;;;;;;;;;;6317979;28;20094;-81
2024/02/09 04:22:15;;;;;;;2.70;1.50;;;;;;;;;;6303419;28;20035;-81
2024/02/09 04:25:15;;;;;;;2.60;1.47;;;;;;;;;;6321111;28;20109;-81
2024/02/09 04:28:17;;;;;;;1.60;1.20;;;;;;;;;;6301910;28;20024;-81
2024/02/09 04:31:17;;;;;;;1.67;1.48;;;;;;;;;;6309677;28;20039;-81
2024/02/09 04:34:18;;;;;;;1.57;1.30;;;;;;;;;;6343941;28;20028;-81
2024/02/09 04:37:21;;;;;;;1.60;1.10;;;;;;;;;;6321213;28;20368;-80
2024/02/09 04:40:21;;;;;;;1.98;1.38;;;;;;;;;;6321773;28;20082;-81
2024/02/09 04:43:22;;;;;;;1.50;1.40;;;;;;;;;;6326193;28;20107;-81
2024/02/09 04:46:23;;;;;;;2.72;1.60;;;;;;;;;;6325121;28;20025;-81
2024/02/09 04:49:24;;;;;;;2.78;1.38;;;;;;;;;;6320377;28;20449;-81
2024/02/09 04:52:27;;;;;;;2.60;1.95;;;;;;;;;;6292327;28;20033;-81
2024/02/09 04:55:27;;;;;;;3.03;1.60;;;;;;;;;;6297672;28;20078;-80
2024/02/09 04:58:27;;;;;;;1.90;1.50;;;;;;;;;;6300922;28;20032;-80
2024/02/09 05:01:28;;;;;;;3.20;1.77;;;;;;;;;;6306706;28;20035;-81
2024/02/09 05:04:29;;;;;;;2.25;1.80;;;;;;;;;;6311993;28;20035;-81
2024/02/09 05:07:29;;;;;;;3.80;1.60;;;;;;;;;;6320548;28;20462;-81
2024/02/09 05:10:29;;;;;;;2.90;1.77;;;;;;;;;;6302404;28;20024;-81
2024/02/09 05:13:30;;;;;;;2.70;1.80;;;;;;;;;;6304845;28;20484;-81
2024/02/09 05:16:30;;;;;;;3.17;1.83;;;;;;;;;;6346205;28;20472;-80
2024/02/09 05:19:31;;;;;;;2.97;1.87;;;;;;;;;;6330579;28;20364;-81
2024/02/09 05:22:31;;;;;;;3.03;2.27;;;;;;;;;;6329539;28;20020;-81
2024/02/09 05:25:31;;;;;;;3.80;2.37;;;;;;;;;;6340038;28;20362;-80
2024/02/09 05:28:38;;;;;;;2.37;2.13;;;;;;;;;;6322602;28;20066;-81
2024/02/09 05:31:41;;;;;;;3.05;2.20;;;;;;;;;;6325446;28;20082;-81
2024/02/09 05:34:45;;;;;;;2.67;2.08;;;;;;;;;;6300105;28;20036;-81
2024/02/09 05:37:46;;;;;;;2.53;2.33;;;;;;;;;;6298433;28;20025;-81
2024/02/09 05:40:46;;;;;;;3.77;2.30;;;;;;;;;;6324056;28;20058;-81
2024/02/09 05:43:47;;;;;;;3.50;2.22;;;;;;;;;;6303573;28;20027;-81
2024/02/09 05:46:48;;;;;;;4.65;2.35;;;;;;;;;;6324991;28;20439;-82
2024/02/09 05:49:48;;;;;;;4.30;2.50;;;;;;;;;;6333764;28;20036;-84
2024/02/09 05:52:48;;;;;;;2.70;1.97;;;;;;;;;;6301785;28;20039;-81
2024/02/09 05:55:48;;;;;;;3.07;2.10;;;;;;;;;;6311818;28;20021;-79
2024/02/09 05:58:52;;;;;;;2.80;1.93;;;;;;;;;;6323135;28;20036;-82
2024/02/09 06:01:52;;;;;;;2.80;2.42;;;;;;;;;;6323888;28;20031;-81
2024/02/09 06:04:52;;;;;;;3.53;2.47;;;;;;;;;;6324660;28;20028;-81
2024/02/09 06:07:53;;;;;;;2.30;2.03;;;;;;;;;;6324410;28;20054;-81
2024/02/09 06:10:53;;;;;;;2.77;2.13;;;;;;;;;;6338868;28;20047;-81
2024/02/09 06:13:53;;;;;;;2.93;1.93;;;;;;;;;;6361004;27;20051;-82
2024/02/09 06:16:55;;;;;;;2.93;1.97;;;;;;;;;;6372651;27;20024;-82
2024/02/09 06:19:55;;;;;;;2.50;1.58;;;;;;;;;;6357200;27;20383;-81
2024/02/09 06:22:56;;;;;;;2.70;2.03;;;;;;;;;;6333995;28;20030;-82
2024/02/09 06:25:57;;;;;;;3.65;1.95;;;;;;;;;;6332374;28;20015;-82
2024/02/09 06:28:57;;;;;;;3.17;1.70;;;;;;;;;;6363601;27;20061;-81
2024/02/09 06:31:58;;;;;;;2.17;1.50;;;;;;;;;;6375122;27;20061;-80
2024/02/09 06:34:59;;;;;;;2.95;1.60;;;;;;;;;;6357071;27;20034;-80
2024/02/09 06:38:00;;;;;;;2.72;1.80;;;;;;;;;;6371622;27;20361;-80
2024/02/09 06:41:00;;;;;;;3.00;1.37;;;;;;;;;;6373683;27;20031;-80
2024/02/09 06:44:00;;;;;;;2.10;1.60;;;;;;;;;;6370656;27;20029;-80
2024/02/09 06:47:01;;;;;;;3.93;1.87;;;;;;;;;;6374366;27;20115;-80
2024/02/09 06:50:01;;;;;;;2.13;1.40;;;;;;;;;;6374173;27;20031;-80
2024/02/09 06:53:02;;;;;;;2.90;1.70;;;;;;;;;;6373967;27;20019;-80
2024/02/09 06:56:02;;;;;;;3.05;1.67;;;;;;;;;;6356413;27;20026;-80
2024/02/09 06:59:06;;;;;;;2.63;1.70;;;;;;;;;;6367706;27;20486;-80
2024/02/09 07:02:06;;;;;;;3.17;1.65;;;;;;;;;;6370734;27;20030;-81
2024/02/09 07:05:08;;;;;;;2.80;1.63;;;;;;;;;;6371509;27;20023;-80
2024/02/09 07:08:09;;;;;;;2.22;1.60;;;;;;;;;;6368773;27;20019;-81
2024/02/09 07:11:11;;;;;;;2.97;1.77;;;;;;;;;;6366210;27;20063;-82
2024/02/09 07:14:12;;;;;;;2.58;1.67;;;;;;;;;;6366655;27;20050;-80
2024/02/09 07:17:13;;;;;;;2.60;1.70;;;;;;;;;;6371856;27;20046;-81
2024/02/09 07:20:16;;;;;;;3.17;2.13;;;;;;;;;;6374167;27;20031;-80
2024/02/09 07:23:19;;;;;;;3.17;1.80;;;;;;;;;;6367499;27;20034;-80
2024/02/09 07:26:23;;;;;;;4.60;2.10;;;;;;;;;;6340317;27;20052;-79
2024/02/09 07:29:23;;;;;;;2.85;1.80;;;;;;;;;;6362229;27;20041;-80
2024/02/09 07:32:23;;;;;;;3.23;2.00;;;;;;;;;;6371809;27;20031;-80
2024/02/09 07:35:25;;;;;;;2.70;1.60;;;;;;;;;;6375534;27;20105;-80
2024/02/09 07:38:25;;;;;;;;;;;;;;;;;;6373146;27;20081;-80
2024/02/09 07:41:27;;;;;;;2.15;1.40;;;;;;;;;;6343884;27;19923;-79
2024/02/09 07:44:28;;;;;;;2.35;1.52;;;;;;;;;;6351973;27;20031;-79
2024/02/09 07:47:29;;;;;;;2.05;1.75;;;;;;;;;;6372336;27;20030;-80
2024/02/09 07:50:29;;;;;;;2.70;1.70;;;;;;;;;;6372901;27;20023;-80
2024/02/09 07:53:30;;;;;;;4.77;2.00;;;;;;;;;;6373429;27;20039;-80
2024/02/09 07:56:32;;;;;;;3.83;2.55;;;;;;;;;;6374021;27;20030;-80
2024/02/09 07:59:32;;;;;;;4.50;2.92;;;;;;;;;;6367475;27;20118;-80
2024/02/09 08:02:33;;;;;;;6.13;3.67;;;;;;;;;;6372906;27;20497;-80
2024/02/09 08:05:35;;;;;;;5.30;4.17;;;;;;;;;;6371653;27;20507;-80
2024/02/09 08:08:35;;;;;;;6.03;4.25;;;;;;;;;;6354010;27;20031;-80
2024/02/09 08:11:36;;;;;;;7.80;4.50;;;;;;;;;;6373186;27;20526;-78
2024/02/09 08:14:37;;;;;;;;;;;;;;;;;;6322934;27;20116;-79
2024/02/09 08:17:38;;;;;;;5.57;3.50;;;;;;;;;;6322375;28;19995;-80
2024/02/09 08:20:39;;;;;;;5.38;4.45;;;;;;;;;;6330347;28;20039;-79
2024/02/09 08:23:39;;;;;;;5.93;4.83;;;;;;;;;;6344377;28;20073;-79
2024/02/09 08:26:40;;;;;;;5.73;4.50;;;;;;;;;;6313933;28;20115;-78
2024/02/09 08:29:40;;;;;;;6.27;4.67;;;;;;;;;;6344611;28;20019;-78
2024/02/09 08:32:41;;;;;;;6.13;4.73;;;;;;;;;;6346124;28;20342;-78
2024/02/09 08:35:41;;;;;;;8.23;5.25;;;;;;;;;;6345786;28;20064;-77
2024/02/09 08:38:41;;;;;;;6.23;5.07;;;;;;;;;;6341612;28;20498;-80
2024/02/09 08:41:42;;;;;;;7.97;4.70;;;;;;;;;;6345399;28;20472;-81
2024/02/09 08:44:42;;;;;;;5.28;4.38;;;;;;;;;;6343563;28;20032;-81
2024/02/09 08:47:43;;;;;;;6.47;4.70;;;;;;;;;;6338938;28;20043;-81
2024/02/09 08:50:44;;;;;;;7.93;4.57;;;;;;;;;;6346004;28;20035;-80
2024/02/09 08:53:44;;;;;;;;;;;;;;;;;;6346016;28;20281;-80
2024/02/09 08:56:45;;;;;;;6.38;3.85;;;;;;;;;;6344895;28;19957;-80
2024/02/09 08:59:45;;;;;;;7.10;4.63;;;;;;;;;;6331124;28;20114;-81
2024/02/09 09:02:45;;;;;;;5.27;4.30;;;;;;;;;;6350658;28;20020;-81
2024/02/09 09:05:47;;;;;;;5.63;4.63;;;;;;;;;;6327803;28;20064;-80
2024/02/09 09:08:47;;;;;;;7.00;4.97;;;;;;;;;;6339856;28;20269;-78
2024/02/09 09:11:47;;;;;;;7.60;5.00;;;;;;;;;;6332109;28;20446;-79
2024/02/09 09:14:48;;;;;;;5.97;4.17;;;;;;;;;;6346632;28;20564;-78
2024/02/09 09:17:48;;;;;;;8.50;5.10;;;;;;;;;;6350224;28;20169;-78
2024/02/09 09:20:48;;;;;;;5.67;4.27;;;;;;;;;;6322268;28;20481;-79
2024/02/09 09:23:51;;;;;;;6.27;4.47;;;;;;;;;;6343735;28;20098;-78
2024/02/09 09:26:51;;;;;;;6.20;4.45;;;;;;;;;;6341505;28;20104;-79
2024/02/09 09:29:52;;;;;;;6.90;4.70;;;;;;;;;;6342470;28;20028;-79
2024/02/09 09:32:53;;;;;;;7.80;4.97;;;;;;;;;;6350236;28;20092;-79
2024/02/09 09:35:53;;;;;;;5.97;4.77;;;;;;;;;;6349459;28;20031;-79
2024/02/09 09:38:53;;;;;;;6.47;4.67;;;;;;;;;;6331715;28;20053;-79
2024/02/09 09:41:55;;;;;;;5.73;4.47;;;;;;;;;;6347224;28;20391;-84
2024/02/09 09:44:56;;;;;;;5.18;4.53;;;;;;;;;;6342515;28;20023;-86
2024/02/09 09:47:57;;;;;;;6.60;4.97;;;;;;;;;;6336441;28;20484;-84
2024/02/09 09:50:58;;;;;;;6.93;4.70;;;;;;;;;;6349597;28;20064;-84
2024/02/09 09:54:00;;;;;;;6.18;4.47;;;;;;;;;;6350218;28;20024;-82
2024/02/09 09:57:01;;;;;;;7.03;4.53;;;;;;;;;;6330268;28;20060;-82
2024/02/09 10:00:03;;;;;;;5.43;4.17;;;;;;;;;;6345131;28;20067;-83
2024/02/09 10:03:04;;;;;;;4.53;3.88;;;;;;;;;;6348439;28;20260;-83
2024/02/09 10:06:05;;;;;;;9.57;4.72;;;;;;;;;;6329426;28;20106;-80
2024/02/09 10:09:09;;;;;;;6.05;4.47;;;;;;;;;;6349029;28;20490;-80
2024/02/09 10:12:10;;;;;;;5.93;4.72;;;;;;;;;;6346663;28;20027;-80
2024/02/09 10:15:10;;;;;;;6.22;4.57;;;;;;;;;;6349992;27;20076;-80
2024/02/09 10:18:10;;;;;;;7.50;5.07;;;;;;;;;;6348044;28;20121;-80
2024/02/09 10:21:11;;;;;;;6.97;4.83;;;;;;;;;;6329405;28;20028;-80
2024/02/09 10:24:19;;;;;;;7.21;5.13;;;;;;;;;;5901683;28;10000653;-81
2024/02/09 10:27:20;;;;;;;8.13;5.38;;;;;;;;;;6322980;28;20225;-80
2024/02/09 10:30:20;;;;;;;6.83;4.87;;;;;;;;;;6334692;28;20042;-80
2024/02/09 10:33:20;;;;;;;6.50;5.43;;;;;;;;;;5994018;28;9999872;-85
2024/02/09 10:36:24;;;;;;;5.53;4.60;;;;;;;;;;5996064;28;9999849;-85
2024/02/09 10:39:27;;;;;;;6.40;4.65;;;;;;;;;;6346872;28;20468;-81
2024/02/09 10:42:28;;;;;;;6.55;4.72;;;;;;;;;;6342593;28;20019;-80
2024/02/09 10:45:28;;;;;;;8.52;5.18;;;;;;;;;;6331542;28;20413;-80
2024/02/09 10:48:37;;;;;;;6.50;4.70;;;;;;;;;;6324342;28;20031;-81
2024/02/09 10:51:39;;;;;;;6.70;4.47;;;;;;;;;;6347794;28;20030;-80
2024/02/09 10:54:49;;;;;;;6.47;5.10;;;;;;;;;;6333514;28;20096;-81
2024/02/09 10:57:50;;;;;;;7.32;5.00;;;;;;;;;;6341760;28;20102;-81
2024/02/09 11:00:50;;;;;;;7.20;4.93;;;;;;;;;;6328663;28;20499;-80
2024/02/09 11:03:51;;;;;;;6.17;4.47;;;;;;;;;;6345942;28;20031;-81
2024/02/09 11:06:52;;;;;;;6.90;5.03;;;;;;;;;;6346347;28;20478;-81
2024/02/09 11:09:52;;;;;;;7.32;4.88;;;;;;;;;;6344434;28;20289;-81
2024/02/09 11:12:59;;;;;;;5.87;5.07;;;;;;;;;;6339866;28;20128;-83
2024/02/09 11:16:00;;;;;;;6.35;4.75;;;;;;;;;;6320003;28;20004;-84
2024/02/09 11:19:02;;;;;;;5.60;4.50;;;;;;;;;;6321661;28;20028;-83
2024/02/09 11:22:04;;;;;;;6.78;4.45;;;;;;;;;;6322600;28;20838;-83
2024/02/09 11:25:09;;;;;;;6.38;4.93;;;;;;;;;;6322375;28;20035;-83
2024/02/09 11:28:09;;;;;;;6.95;4.57;;;;;;;;;;6311394;28;20060;-81
2024/02/09 11:31:10;;;;;;;6.40;4.25;;;;;;;;;;6296944;28;20031;-84
2024/02/09 11:34:11;;;;;;;5.32;3.95;;;;;;;;;;6313131;28;20058;-83
2024/02/09 11:37:11;;;;;;;6.00;3.90;;;;;;;;;;6312660;28;20044;-84
2024/02/09 11:40:12;;;;;;;6.73;4.10;;;;;;;;;;6327333;28;20070;-83
2024/02/09 11:43:12;;;;;;;7.95;4.43;;;;;;;;;;6318325;28;20159;-83
2024/02/09 11:46:13;;;;;;;6.03;4.13;;;;;;;;;;6319526;28;20024;-84
2024/02/09 11:49:14;;;;;;;5.93;4.17;;;;;;;;;;6301154;28;20289;-84
2024/02/09 11:52:14;;;;;;;5.18;4.25;;;;;;;;;;6324070;28;20076;-83
2024/02/09 11:55:14;;;;;;;5.70;4.37;;;;;;;;;;6346950;28;20135;-83
2024/02/09 11:58:15;;;;;;;5.23;4.30;;;;;;;;;;6327035;28;20026;-83
2024/02/09 12:01:17;;;;;;;4.22;3.80;;;;;;;;;;6320732;28;20157;-83
2024/02/09 12:04:17;;;;;;;5.32;4.00;;;;;;;;;;6320402;28;20032;-83
2024/02/09 12:07:18;;;;;;;5.27;3.57;;;;;;;;;;6326444;28;20376;-84
2024/02/09 12:10:19;;;;;;;7.82;4.10;;;;;;;;;;6346792;28;20039;-83
2024/02/09 12:13:20;;;;;;;5.05;4.20;;;;;;;;;;6327222;28;20054;-83
2024/02/09 12:16:20;;;;;;;5.05;3.70;;;;;;;;;;6288408;28;20397;-84
2024/02/09 12:19:21;;;;;;;5.23;3.97;;;;;;;;;;6296228;28;20036;-84
2024/02/09 12:22:22;;;;;;;5.47;4.00;;;;;;;;;;6317685;28;20633;-83
2024/02/09 12:25:23;;;;;;;5.80;4.05;;;;;;;;;;6320064;28;20034;-84
2024/02/09 12:28:23;;;;;;;5.93;3.80;;;;;;;;;;6319551;28;20012;-81
2024/02/09 12:31:24;;;;;;;4.27;3.80;;;;;;;;;;6320989;28;20028;-81
2024/02/09 12:34:24;;;;;;;5.88;4.10;;;;;;;;;;6325263;28;20032;-82
2024/02/09 12:37:26;;;;;;;4.37;3.60;;;;;;;;;;6352199;28;20020;-82
2024/02/09 12:40:26;;;;;;;5.05;4.13;;;;;;;;;;6334833;28;20016;-78
2024/02/09 12:43:27;;;;;;;4.50;3.73;;;;;;;;;;6306026;28;20326;-77
2024/02/09 12:46:27;;;;;;;4.67;3.60;;;;;;;;;;6321931;28;20027;-76
2024/02/09 12:49:28;;;;;;;5.32;3.78;;;;;;;;;;6326287;28;20020;-76
2024/02/09 12:52:28;;;;;;;3.72;3.42;;;;;;;;;;6327383;28;20039;-76
2024/02/09 12:55:28;;;;;;;4.60;3.50;;;;;;;;;;6326974;28;20031;-78
2024/02/09 12:58:29;;;;;;;4.20;3.60;;;;;;;;;;6338758;28;20476;-75
2024/02/09 13:01:29;;;;;;;4.15;3.65;;;;;;;;;;6350208;28;20027;-79
2024/02/09 13:04:30;;;;;;;4.40;3.57;;;;;;;;;;6324911;28;20404;-76
2024/02/09 13:07:33;;;;;;;4.28;3.72;;;;;;;;;;6350593;28;20099;-78
2024/02/09 13:10:33;;;;;;;4.38;3.45;;;;;;;;;;6327250;28;20514;-77
2024/02/09 13:13:36;;;;;;;3.93;3.23;;;;;;;;;;6323890;28;20062;-78
2024/02/09 13:16:37;;;;;;;5.97;3.60;;;;;;;;;;6328751;28;20028;-77
2024/02/09 13:19:38;;;;;;;5.68;3.45;;;;;;;;;;6303445;28;20035;-78
2024/02/09 13:22:38;;;;;;;5.32;3.83;;;;;;;;;;6324530;28;20034;-77
2024/02/09 13:25:40;;;;;;;7.50;4.20;;;;;;;;;;6337812;28;20036;-78
2024/02/09 13:28:42;;;;;;;5.72;3.97;;;;;;;;;;6323103;28;20012;-78
2024/02/09 13:31:42;;;;;;;6.18;4.45;;;;;;;;;;6327748;28;20035;-79
2024/02/09 13:34:43;;;;;;;4.23;3.43;;;;;;;;;;6319246;28;20040;-80
2024/02/09 13:37:44;;;;;;;3.90;3.20;;;;;;;;;;6288729;28;20021;-79
2024/02/09 13:40:45;;;;;;;4.63;3.65;;;;;;;;;;6303677;28;20051;-79
2024/02/09 13:43:45;;;;;;;5.18;3.55;;;;;;;;;;6300340;28;20579;-79
2024/02/09 13:46:45;;;;;;;5.33;3.70;;;;;;;;;;6307918;28;20514;-78
2024/02/09 13:49:46;;;;;;;4.67;3.40;;;;;;;;;;6303610;28;20043;-78
2024/02/09 13:52:47;;;;;;;6.20;3.87;;;;;;;;;;6303929;28;20029;-78
2024/02/09 13:55:47;;;;;;;3.70;3.33;;;;;;;;;;6302479;28;20031;-78
2024/02/09 13:58:48;;;;;;;3.97;3.47;;;;;;;;;;6302465;28;20489;-83
2024/02/09 14:01:48;;;;;;;4.23;3.50;;;;;;;;;;6309261;28;20028;-83
2024/02/09 14:04:48;;;;;;;4.33;3.23;;;;;;;;;;6292252;28;20375;-83
2024/02/09 14:07:50;;;;;;;3.23;2.93;;;;;;;;;;6304680;28;20048;-82
2024/02/09 14:10:50;;;;;;;4.97;2.80;;;;;;;;;;6304489;28;20427;-82
2024/02/09 14:13:50;;;;;;;6.43;3.43;;;;;;;;;;6318131;28;20083;-83
2024/02/09 14:16:52;;;;;;;4.03;3.40;;;;;;;;;;6318611;28;20024;-83
2024/02/09 14:19:52;;;;;;;4.20;3.08;;;;;;;;;;6327410;28;20024;-83
2024/02/09 14:22:53;;;;;;;4.43;3.43;;;;;;;;;;6329265;28;20039;-83
2024/02/09 14:25:59;;;;;;;3.38;2.60;;;;;;;;;;6327560;28;20041;-83
2024/02/09 14:29:00;;;;;;;3.20;2.58;;;;;;;;;;6312914;28;20036;-82
2024/02/09 14:32:00;;;;;;;4.78;2.83;;;;;;;;;;6338206;28;20026;-84
2024/02/09 14:35:01;;;;;;;3.90;3.33;;;;;;;;;;6330866;28;20032;-81
2024/02/09 14:38:01;;;;;;;5.27;2.93;;;;;;;;;;6336634;28;20024;-77
2024/02/09 14:41:01;;;;;;;3.90;2.97;;;;;;;;;;6343322;28;20012;-81
2024/02/09 14:44:02;;;;;;;4.07;3.10;;;;;;;;;;6343240;28;20366;-82
2024/02/09 14:47:02;;;;;;;3.43;2.90;;;;;;;;;;6340930;28;20024;-81
2024/02/09 14:50:08;;;;;;;4.30;3.23;;;;;;;;;;6344467;28;20027;-83
2024/02/09 14:53:08;;;;;;;3.50;2.75;;;;;;;;;;6348644;28;20080;-83
2024/02/09 14:56:09;;;;;;;4.97;3.07;;;;;;;;;;6337217;28;20019;-82
2024/02/09 14:59:10;;;;;;;3.20;2.78;;;;;;;;;;6321151;28;20039;-82
2024/02/09 15:02:11;;;;;;;4.40;2.88;;;;;;;;;;6344231;28;20102;-83
2024/02/09 15:05:12;;;;;;;3.53;2.92;;;;;;;;;;6342067;28;20469;-81
2024/02/09 15:08:12;;;;;;;4.13;3.00;;;;;;;;;;6341683;28;20033;-83
2024/02/09 15:11:18;;;;;;;3.77;2.87;;;;;;;;;;6346660;28;20511;-82
2024/02/09 15:14:19;;;;;;;4.10;3.28;;;;;;;;;;6326637;28;20054;-83
2024/02/09 15:17:22;;;;;;;4.47;3.63;;;;;;;;;;6346793;28;20452;-82
2024/02/09 15:20:23;;;;;;;4.13;3.28;;;;;;;;;;6328354;28;20962;-82
2024/02/09 15:23:24;;;;;;;4.27;3.23;;;;;;;;;;6340530;28;20110;-86
2024/02/09 15:26:26;;;;;;;4.88;3.50;;;;;;;;;;6341578;28;20528;-82
2024/02/09 15:29:26;;;;;;;4.68;3.22;;;;;;;;;;6340329;28;20400;-82
2024/02/09 15:32:26;;;;;;;5.10;3.43;;;;;;;;;;6342982;28;20058;-82
2024/02/09 15:35:27;;;;;;;3.90;3.17;;;;;;;;;;6319908;28;20332;-82
2024/02/09 15:38:27;;;;;;;4.83;3.27;;;;;;;;;;6336768;28;20614;-84
2024/02/09 15:41:28;;;;;;;5.65;3.10;;;;;;;;;;6324899;28;20396;-81
2024/02/09 15:44:28;;;;;;;4.53;3.17;;;;;;;;;;6342278;28;20015;-79
2024/02/09 15:47:30;;;;;;;3.47;3.03;;;;;;;;;;6336683;28;20031;-83
2024/02/09 15:50:31;;;;;;;4.57;3.08;;;;;;;;;;6334891;28;20024;-80
2024/02/09 15:53:32;;;;;;;4.88;3.53;;;;;;;;;;6343353;28;20073;-77
2024/02/09 15:56:33;;;;;;;4.93;3.50;;;;;;;;;;6329373;28;20045;-77
2024/02/09 15:59:34;;;;;;;4.25;2.88;;;;;;;;;;6313858;28;20028;-76
2024/02/09 16:02:35;;;;;;;4.03;2.80;;;;;;;;;;6315288;28;20030;-78
2024/02/09 16:05:36;;;;;;;;;;;;;;;;;;6306439;28;20329;-76
2024/02/09 16:08:36;;;;;;;4.25;2.33;;;;;;;;;;6323289;28;20210;-75
2024/02/09 16:11:36;;;;;;;3.73;2.77;;;;;;;;;;6327780;28;20043;-74
2024/02/09 16:14:38;;;;;;;3.33;2.63;;;;;;;;;;6323603;28;20040;-75
2024/02/09 16:17:39;;;;;;;4.32;3.08;;;;;;;;;;6323583;28;20019;-75
2024/02/09 16:20:40;;;;;;;3.53;3.00;;;;;;;;;;6326946;28;20074;-82
2024/02/09 16:23:47;;;;;;;3.63;3.05;;;;;;;;;;6323862;28;20028;-82
2024/02/09 16:26:48;;;;;;;4.70;3.28;;;;;;;;;;6324358;28;20028;-81
2024/02/09 16:29:49;;;;;;;5.35;3.35;;;;;;;;;;6325764;28;20038;-81
2024/02/09 16:32:51;;;;;;;4.88;3.17;;;;;;;;;;6329398;28;20031;-81
2024/02/09 16:35:51;;;;;;;4.63;3.53;;;;;;;;;;6331129;28;20036;-80
2024/02/09 16:38:52;;;;;;;3.70;2.93;;;;;;;;;;6307891;28;20500;-81
2024/02/09 16:41:52;;;;;;;4.43;3.17;;;;;;;;;;6321670;28;20373;-81
2024/02/09 16:44:52;;;;;;;4.93;3.10;;;;;;;;;;6324623;28;20028;-81
2024/02/09 16:47:52;;;;;;;5.87;3.03;;;;;;;;;;6320366;28;20396;-80
2024/02/09 16:50:52;;;;;;;3.87;2.93;;;;;;;;;;6330591;28;20032;-80
2024/02/09 16:53:53;;;;;;;3.63;3.13;;;;;;;;;;6324135;28;20510;-81
2024/02/09 16:56:53;;;;;;;4.77;2.83;;;;;;;;;;6328556;28;20465;-79
2024/02/09 16:59:53;;;;;;;3.20;2.87;;;;;;;;;;6328967;28;20030;-81
2024/02/09 17:02:54;;;;;;;3.90;2.83;;;;;;;;;;6326437;28;20066;-80
2024/02/09 17:05:54;;;;;;;5.10;3.92;;;;;;;;;;6330494;28;20103;-81
2024/02/09 17:08:55;;;;;;;7.10;3.83;;;;;;;;;;6322803;28;20036;-81
2024/02/09 17:11:55;;;;;;;4.67;3.73;;;;;;;;;;6325919;28;20031;-81
2024/02/09 17:14:58;;;;;;;4.10;3.33;;;;;;;;;;6327751;28;20270;-80
2024/02/09 17:17:58;;;;;;;5.97;3.17;;;;;;;;;;6336139;28;20438;-79
2024/02/09 17:20:58;;;;;;;5.07;3.53;;;;;;;;;;6328950;28;20031;-80
2024/02/09 17:23:59;;;;;;;3.93;3.27;;;;;;;;;;6330981;28;20019;-80
2024/02/09 17:27:00;;;;;;;4.17;2.87;;;;;;;;;;6332837;28;20036;-82
2024/02/09 17:30:00;;;;;;;4.32;3.60;;;;;;;;;;6328479;28;20027;-81
2024/02/09 17:33:00;;;;;;;3.73;3.30;;;;;;;;;;6328781;28;20035;-79
2024/02/09 17:36:01;;;;;;;3.70;3.03;;;;;;;;;;6327001;28;20097;-75
2024/02/09 17:39:02;;;;;;;4.45;3.30;;;;;;;;;;6329176;28;20028;-75
2024/02/09 17:42:02;;;;;;;4.63;3.40;;;;;;;;;;6333185;28;20031;-81
2024/02/09 17:45:02;;;;;;;4.53;3.40;;;;;;;;;;6333007;27;20103;-83
2024/02/09 17:48:08;;;;;;;4.47;3.63;;;;;;;;;;6151211;28;10001260;-83
2024/02/09 17:51:09;;;;;;;4.47;3.60;;;;;;;;;;6338625;28;20826;-83
2024/02/09 17:54:09;;;;;;;5.63;3.67;;;;;;;;;;6339563;28;20361;-83
2024/02/09 17:57:10;;;;;;;5.50;3.70;;;;;;;;;;6341808;28;20028;-82
2024/02/09 18:00:10;;;;;;;4.07;3.27;;;;;;;;;;6337181;28;20062;-83
2024/02/09 18:03:10;;;;;;;4.93;3.90;;;;;;;;;;6337135;28;20114;-83
2024/02/09 18:06:11;;;;;;;4.73;3.63;;;;;;;;;;6337995;28;20040;-84
2024/02/09 18:09:13;;;;;;;6.27;5.23;;;;;;;;;;6338135;28;20495;-85
2024/02/09 18:12:13;;;;;;;9.68;6.50;;;;;;;;;;6318478;28;20032;-85
2024/02/09 18:15:14;;;;;;;8.80;6.13;;;;;;;;;;6343776;28;20358;-84
2024/02/09 18:18:15;;;;;;;5.75;4.07;;;;;;;;;;6341396;28;20084;-85
2024/02/09 18:21:16;;;;;;;5.70;4.23;;;;;;;;;;6328033;28;20024;-84
2024/02/09 18:24:17;;;;;;;4.47;3.80;;;;;;;;;;6332167;28;20034;-84
2024/02/09 18:27:17;;;;;;;6.63;3.63;;;;;;;;;;6322019;28;20480;-84
2024/02/09 18:30:18;;;;;;;5.60;4.10;;;;;;;;;;6325766;28;20507;-82
2024/02/09 18:33:19;;;;;;;4.50;3.95;;;;;;;;;;6323178;28;20019;-82
2024/02/09 18:36:20;;;;;;;4.45;3.78;;;;;;;;;;6327084;28;20027;-82
2024/02/09 18:39:20;;;;;;;5.13;4.00;;;;;;;;;;6325572;28;20558;-81
2024/02/09 18:42:20;;;;;;;5.83;3.80;;;;;;;;;;6327874;28;20164;-81
2024/02/09 18:45:21;;;;;;;5.13;3.73;;;;;;;;;;6328922;28;20365;-82
2024/02/09 18:48:21;;;;;;;5.93;3.70;;;;;;;;;;6329044;28;20480;-82
2024/02/09 18:51:21;;;;;;;4.30;3.60;;;;;;;;;;6323739;28;20119;-82
2024/02/09 18:54:22;;;;;;;5.00;3.90;;;;;;;;;;6325105;28;20142;-81
2024/02/09 18:57:22;;;;;;;5.47;3.03;;;;;;;;;;6313512;28;20050;-81
2024/02/09 19:00:22;;;;;;;4.87;3.57;;;;;;;;;;6327871;28;20023;-82
2024/02/09 19:03:23;;;;;;;5.57;3.53;;;;;;;;;;6326857;28;20376;-81
2024/02/09 19:06:23;;;;;;;6.13;3.50;;;;;;;;;;6326605;28;20089;-79
2024/02/09 19:09:24;;;;;;;5.33;3.40;;;;;;;;;;6327934;28;20040;-82
2024/02/09 19:12:24;;;;;;;3.73;2.83;;;;;;;;;;6325171;28;20055;-82
2024/02/09 19:15:25;;;;;;;5.27;2.93;;;;;;;;;;6332009;28;20265;-81
2024/02/09 19:18:26;;;;;;;5.88;3.28;;;;;;;;;;6324870;28;20038;-82
2024/02/09 19:21:27;;;;;;;4.43;3.00;;;;;;;;;;6324941;28;20036;-79
2024/02/09 19:24:27;;;;;;;3.40;3.10;;;;;;;;;;6330550;28;20050;-79
2024/02/09 19:27:28;;;;;;;4.37;3.17;;;;;;;;;;6326800;28;20024;-81
2024/02/09 19:30:33;;;;;;;5.77;3.40;;;;;;;;;;6327035;28;20032;-81
2024/02/09 19:33:33;;;;;;;3.53;2.90;;;;;;;;;;6324373;28;20095;-81
2024/02/09 19:36:34;;;;;;;4.37;3.00;;;;;;;;;;6308457;28;20046;-80
2024/02/09 19:39:36;;;;;;;3.70;2.90;;;;;;;;;;6323937;28;20085;-81
2024/02/09 19:42:37;;;;;;;3.97;3.13;;;;;;;;;;6312650;28;20031;-81
2024/02/09 19:45:37;;;;;;;4.53;3.10;;;;;;;;;;6335111;27;20027;-82
2024/02/09 19:48:39;;;;;;;4.73;3.40;;;;;;;;;;6331706;28;21978;-76
2024/02/09 19:51:47;;;;;;;6.25;3.30;;;;;;;;;;6312913;28;20545;-76
2024/02/09 19:54:48;;;;;;;4.05;3.22;;;;;;;;;;6339553;28;20480;-76